Portada
METAR-TAF:

METAR-TAF

Aeropuertos :

Aeropuerto de Bruselas. Zaventem

Bruselas, Bélgica

latitud: 50-54N, longitud: 004-32E, altitud: 55 m

Observación

El informe se hizo hace 10 horas y 29 minutos, a las 05:20 UTC
Viento 1 kt con dirección variable
Temperatura 16°C
Humedad 82%
Presión 1021 hPa
Visibilidad 10 km o más
sin nubes por debajo de 1500 m y sin presencia de cumulonimbus.

METAR: EBBR 210520Z VRB01KT CAVOK 16/13 Q1021 NOSIG

Hora: 17:49 (15:49 UTC)

Pronóstico

El informe se hizo hace 10 horas y 49 minutos, a las 05:00 UTC
Pronóstico válido del 21 a las 06 UTC al 22 a las 12 UTC
Viento 3 kt del noroeste
Visibilidad 10 km o más
Nubes dispersas a una altura de 3500 ft
Temporalmente
del 22 a las 03 UTC al 22 a las 08 UTC
Visibilidad: 4000 m
neblina

TAF: EBBR 210500Z 2106/2212 31003KT 9999 SCT035 TEMPO 2203/2208 4000 BR

Observaciones y pronósticos meteorológicos de más de 4000 aeropuertos (mensajes METAR y TAF).

Los puntos amarillos y rojos representan las estaciones disponibles.

Ponga el ratón en el punto deseado para ver el nombre de la estación.

Haga clic para ver las observaciones y los pronósticos meteorológicos.

Para cambiar el mapa : haga clic en los botones verdes con una cruz de color negro para hacer un zoom, en el botón verde con un guión para alejar o en las flechas verdes para mapas adyacentes.


METAR-TAF: